Time;durP1;ratioP1;P1;durP2;ratioP2;P2;SDS_P1;SDS_P2;PMS_P1;PMS_P2;Temp;Humidity;BMP_temperature;BMP_pressure;BME280_temperature;BME280_humidity;BME280_pressure;Samples;Min_cycle;Max_cycle;Signal;HPM_P1;HPM_P2
2021/04/08 00:00:25;;;;;;;10.10;3.55;;;;;;;18.44;38.05;102068.28;4975864;28;20422;-75
2021/04/08 00:02:51;;;;;;;11.18;3.03;;;;;;;18.38;38.05;102062.13;4976137;28;20034;-84
2021/04/08 00:05:17;;;;;;;9.25;2.47;;;;;;;18.22;38.29;102061.91;4976226;28;20065;-76
2021/04/08 00:07:43;;;;;;;15.63;2.55;;;;;;;18.39;37.73;102066.53;4974691;28;20409;-76
2021/04/08 00:10:10;;;;;;;6.63;2.63;;;;;;;18.21;37.98;102063.06;4974699;28;20113;-93
2021/04/08 00:12:36;;;;;;;5.80;2.97;;;;;;;18.20;37.75;102058.63;4975850;28;20097;-76
2021/04/08 00:15:03;;;;;;;5.57;2.50;;;;;;;18.36;37.41;102060.84;4975970;28;20110;-77
2021/04/08 00:17:29;;;;;;;11.80;2.63;;;;;;;18.36;37.13;102063.59;4975350;28;20385;-76
2021/04/08 00:19:54;;;;;;;7.28;2.75;;;;;;;18.44;36.99;102065.50;4976021;28;20026;-76
2021/04/08 00:22:20;;;;;;;12.52;3.08;;;;;;;18.14;37.36;102068.28;4975965;28;20412;-76
2021/04/08 00:24:45;;;;;;;8.00;1.95;;;;;;;18.34;36.98;102061.19;4975597;28;20434;-90
2021/04/08 00:27:11;;;;;;;5.80;2.28;;;;;;;18.37;36.52;102062.47;4975620;28;20027;-76
2021/04/08 00:29:36;;;;;;;7.97;2.45;;;;;;;17.97;37.21;102060.84;4975374;28;20109;-76
2021/04/08 00:32:02;;;;;;;7.00;2.20;;;;;;;18.23;36.76;102060.75;4975375;28;20478;-75
2021/04/08 00:34:28;;;;;;;6.35;2.05;;;;;;;18.12;36.87;102061.44;4975342;28;20027;-75
2021/04/08 00:36:53;;;;;;;9.25;2.75;;;;;;;18.05;36.92;102058.38;4975597;28;20493;-75
2021/04/08 00:39:19;;;;;;;7.00;2.28;;;;;;;17.94;37.04;102060.72;4975369;28;20114;-76
2021/04/08 00:41:45;;;;;;;9.45;2.63;;;;;;;18.14;36.52;102054.47;4975820;28;20037;-76
2021/04/08 00:44:10;;;;;;;9.50;2.97;;;;;;;18.09;36.71;102056.59;4974863;28;20485;-77
2021/04/08 00:46:36;;;;;;;14.73;2.90;;;;;;;18.09;36.43;102049.09;4974735;28;20047;-76
2021/04/08 00:49:03;;;;;;;5.13;2.30;;;;;;;17.95;36.77;102040.22;4974016;28;20035;-75
2021/04/08 00:51:28;;;;;;;7.53;1.90;;;;;;;17.64;37.25;102048.75;4974283;28;20035;-89
2021/04/08 00:53:54;;;;;;;8.10;2.30;;;;;;;17.94;36.45;102046.88;4974907;28;20517;-75
2021/04/08 00:56:21;;;;;;;6.90;2.60;;;;;;;17.87;36.69;102038.28;4973798;28;20604;-75
2021/04/08 00:58:49;;;;;;;7.20;2.30;;;;;;;17.86;36.60;102040.25;4975122;28;20037;-75
2021/04/08 01:01:16;;;;;;;8.60;3.17;;;;;;;17.55;37.17;102047.97;4974097;28;20037;-75
2021/04/08 01:03:42;;;;;;;7.38;2.58;;;;;;;17.77;36.73;102045.00;4975121;28;20113;-75
2021/04/08 01:06:08;;;;;;;14.48;2.50;;;;;;;17.79;36.74;102039.13;4975291;28;20091;-92
2021/04/08 01:08:36;;;;;;;14.10;3.30;;;;;;;17.31;37.51;102034.69;4975138;28;20034;-76
2021/04/08 01:11:02;;;;;;;4.65;2.53;;;;;;;17.48;37.12;102031.88;4975050;28;20093;-78
2021/04/08 01:13:30;;;;;;;7.35;3.05;;;;;;;17.51;37.26;102024.88;4975189;28;20031;-92
2021/04/08 01:16:02;;;;;;;8.98;2.85;;;;;;;17.23;37.72;102019.75;4974900;28;20030;-75
2021/04/08 01:18:37;;;;;;;13.50;4.20;;;;;;;17.45;37.40;102025.03;4972831;28;20382;-77
2021/04/08 01:21:27;;;;;;;8.57;2.50;;;;;;;17.39;37.46;102020.03;4972735;28;20031;-76
2021/04/08 01:24:18;;;;;;;6.10;2.50;;;;;;;17.33;37.71;102015.81;4974609;28;20027;-75
2021/04/08 01:27:14;;;;;;;11.45;3.20;;;;;;;17.30;37.77;102019.22;4974400;28;20031;-75
2021/04/08 01:30:02;;;;;;;10.75;2.92;;;;;;;17.11;38.30;102014.06;4954706;28;20039;-76
2021/04/08 01:32:30;;;;;;;10.38;3.78;;;;;;;17.17;38.26;102008.03;4974479;28;20035;-75
2021/04/08 01:34:59;;;;;;;7.22;2.60;;;;;;;17.09;38.49;102008.06;4974661;28;20027;-76
2021/04/08 01:37:37;;;;;;;7.78;2.63;;;;;;;16.96;38.67;102015.34;4974319;28;20416;-76
2021/04/08 01:40:04;;;;;;;10.27;2.83;;;;;;;16.79;39.11;102010.66;4974350;28;20023;-76
2021/04/08 01:42:32;;;;;;;9.13;2.83;;;;;;;17.19;38.14;102016.81;4974240;28;20089;-76
2021/04/08 01:45:01;;;;;;;8.00;3.17;;;;;;;17.23;38.08;102013.38;4974167;28;20030;-76
2021/04/08 01:47:29;;;;;;;12.82;3.20;;;;;;;17.22;38.31;102009.00;4973056;28;20058;-92
2021/04/08 01:49:56;;;;;;;9.88;2.90;;;;;;;17.36;37.93;101999.38;4972937;28;20031;-75
2021/04/08 01:52:24;;;;;;;9.65;2.83;;;;;;;17.45;37.52;102002.13;4973648;28;20069;-85
2021/04/08 01:54:55;;;;;;;5.97;3.00;;;;;;;17.05;38.61;101996.84;4973746;28;20562;-76
2021/04/08 01:57:24;;;;;;;12.65;3.40;;;;;;;17.04;38.66;101997.97;4973871;28;20042;-75
2021/04/08 01:59:50;;;;;;;10.32;2.75;;;;;;;17.10;38.21;101996.69;4974138;28;20031;-76
2021/04/08 02:02:16;;;;;;;8.65;2.85;;;;;;;16.88;38.73;101997.66;4972776;28;20121;-76
2021/04/08 02:04:45;;;;;;;10.70;3.08;;;;;;;17.12;38.36;101996.34;4973762;28;20023;-76
2021/04/08 02:07:12;;;;;;;11.45;3.35;;;;;;;17.07;38.51;101993.75;4973858;28;20033;-75
2021/04/08 02:09:39;;;;;;;10.25;3.17;;;;;;;16.91;38.54;101996.19;4974044;28;20177;-76
2021/04/08 02:12:10;;;;;;;8.13;3.55;;;;;;;17.07;38.21;101982.69;4973776;28;20038;-76
2021/04/08 02:14:38;;;;;;;9.65;2.75;;;;;;;17.11;38.40;101989.19;4972797;28;20062;-78
2021/04/08 02:17:04;;;;;;;12.75;2.83;;;;;;;17.13;38.52;101984.16;4972791;28;20026;-88
2021/04/08 02:19:32;;;;;;;7.63;3.53;;;;;;;17.11;38.50;101984.50;4972824;28;20113;-76
2021/04/08 02:21:58;;;;;;;6.65;2.75;;;;;;;17.06;38.32;101987.41;4973985;28;20034;-75
2021/04/08 02:24:26;;;;;;;10.40;3.25;;;;;;;17.15;38.13;101982.72;4974129;28;20027;-75
2021/04/08 02:26:52;;;;;;;5.63;2.60;;;;;;;17.30;38.10;101978.59;4973845;28;20033;-76
2021/04/08 02:29:20;;;;;;;6.88;2.75;;;;;;;17.16;38.11;101973.28;4974502;28;20390;-91
2021/04/08 02:31:46;;;;;;;14.60;3.53;;;;;;;17.09;38.59;101975.72;4974125;28;20086;-75
2021/04/08 02:34:12;;;;;;;12.20;4.05;;;;;;;16.93;38.83;101966.31;4973823;28;20085;-75
2021/04/08 02:36:40;;;;;;;8.60;2.72;;;;;;;17.15;38.17;101957.84;4973736;28;20022;-75
2021/04/08 02:39:08;;;;;;;8.50;3.35;;;;;;;17.14;38.32;101953.44;4956710;28;20113;-75
2021/04/08 02:41:40;;;;;;;6.82;2.83;;;;;;;17.13;38.41;101957.34;4975927;28;20071;-75
2021/04/08 02:44:06;;;;;;;7.90;2.97;;;;;;;16.98;38.70;101952.34;4977802;28;20062;-75
2021/04/08 02:46:32;;;;;;;9.13;2.95;;;;;;;16.88;38.80;101952.69;4976196;28;20064;-75
2021/04/08 02:48:58;;;;;;;9.93;2.80;;;;;;;16.67;39.53;101948.94;4977580;28;20106;-87
2021/04/08 02:51:40;;;;;;;8.05;3.08;;;;;;;16.49;40.04;101946.16;4977425;28;20054;-75
2021/04/08 02:54:13;;;;;;;7.45;2.92;;;;;;;16.64;39.64;101944.88;4977327;28;20054;-75
2021/04/08 02:56:50;;;;;;;6.50;2.47;;;;;;;16.68;39.60;101940.31;4977414;28;20034;-92
2021/04/08 02:59:49;;;;;;;9.50;3.33;;;;;;;16.82;39.12;101948.47;4977180;28;20031;-75
2021/04/08 03:02:19;;;;;;;10.70;2.90;;;;;;;16.85;39.17;101942.28;4976314;28;20031;-76
2021/04/08 03:04:50;;;;;;;8.13;2.35;;;;;;;16.56;39.47;101937.41;4974725;28;20147;-76
2021/04/08 03:07:23;;;;;;;9.38;3.55;;;;;;;16.53;39.92;101940.81;4976135;28;20085;-92
2021/04/08 03:09:50;;;;;;;10.50;3.40;;;;;;;16.61;39.79;101934.47;4976020;28;20473;-76
2021/04/08 03:12:18;;;;;;;8.45;2.85;;;;;;;16.90;38.93;101928.31;4975152;28;20109;-78
2021/04/08 03:14:47;;;;;;;8.68;3.70;;;;;;;16.99;38.85;101928.28;4976149;28;20037;-90
2021/04/08 03:17:19;;;;;;;7.65;2.65;;;;;;;16.68;39.53;101914.66;4975630;28;20031;-75
2021/04/08 03:19:46;;;;;;;11.90;2.58;;;;;;;16.78;39.35;101906.09;4975873;28;20118;-75
2021/04/08 03:22:13;;;;;;;14.05;3.47;;;;;;;16.57;39.88;101900.41;4975664;28;20532;-76
2021/04/08 03:24:42;;;;;;;6.03;2.90;;;;;;;16.35;40.32;101895.84;4975443;28;20111;-76
2021/04/08 03:27:08;;;;;;;12.95;2.70;;;;;;;15.90;41.29;101900.81;4975329;28;20030;-76
2021/04/08 03:29:37;;;;;;;6.03;2.85;;;;;;;16.36;40.27;101897.47;4974444;28;20035;-85
2021/04/08 03:32:03;;;;;;;8.90;2.60;;;;;;;16.46;40.23;101896.34;4975619;28;20082;-75
2021/04/08 03:34:30;;;;;;;6.35;2.65;;;;;;;16.65;39.54;101894.88;4974559;28;20486;-78
2021/04/08 03:36:56;;;;;;;7.68;2.85;;;;;;;16.82;39.54;101887.72;4975728;28;20023;-75
2021/04/08 03:39:22;;;;;;;11.43;3.00;;;;;;;16.81;39.46;101892.44;4975591;28;20031;-74
2021/04/08 03:41:49;;;;;;;8.73;2.50;;;;;;;16.91;39.12;101880.25;4975569;28;20477;-92
2021/04/08 03:44:15;;;;;;;6.75;2.28;;;;;;;16.84;39.17;101885.44;4975598;28;20050;-87
2021/04/08 03:46:44;;;;;;;8.32;3.08;;;;;;;16.57;39.83;101881.91;4974964;28;20054;-76
2021/04/08 03:49:12;;;;;;;8.98;3.10;;;;;;;16.47;40.23;101876.69;4975331;28;20047;-76
2021/04/08 03:51:39;;;;;;;10.25;3.20;;;;;;;16.55;40.04;101866.78;4975216;28;20504;-76
2021/04/08 03:54:09;;;;;;;8.45;2.40;;;;;;;16.63;39.85;101872.31;4974102;28;20030;-75
2021/04/08 03:56:41;;;;;;;;;;;;;;;16.26;40.73;101871.03;4975827;28;20377;-80
2021/04/08 03:59:08;;;;;;;16.83;3.30;;;;;;;16.76;39.45;101861.44;4974754;28;20017;-75
2021/04/08 04:01:36;;;;;;;8.30;2.42;;;;;;;16.70;39.54;101862.75;4975041;28;20030;-87
2021/04/08 04:04:08;;;;;;;6.80;2.70;;;;;;;16.71;39.74;101869.91;4975002;28;20023;-76
2021/04/08 04:06:36;;;;;;;6.22;2.60;;;;;;;16.53;40.04;101869.06;4975340;28;20066;-75
2021/04/08 04:09:04;;;;;;;9.48;2.97;;;;;;;16.70;39.71;101857.22;4975167;28;20027;-75
2021/04/08 04:11:37;;;;;;;4.10;2.55;;;;;;;16.80;39.47;101863.22;4975097;28;20484;-81
2021/04/08 04:14:03;;;;;;;20.30;5.30;;;;;;;16.87;39.38;101851.69;4975427;28;20031;-77
2021/04/08 04:16:32;;;;;;;7.32;2.58;;;;;;;16.50;40.11;101858.69;4974790;28;20031;-75
2021/04/08 04:18:57;;;;;;;9.73;2.60;;;;;;;16.39;40.57;101858.19;4974939;28;20026;-75
2021/04/08 04:21:23;;;;;;;16.23;4.03;;;;;;;16.49;40.32;101862.59;4974073;28;20034;-76
2021/04/08 04:23:49;;;;;;;8.85;2.50;;;;;;;16.72;39.81;101860.50;4975233;28;20027;-75
2021/04/08 04:26:14;;;;;;;8.63;3.00;;;;;;;16.72;39.79;101854.97;4973857;28;20393;-76
2021/04/08 04:28:40;;;;;;;13.95;3.70;;;;;;;16.89;39.29;101861.25;4973923;28;20062;-76
2021/04/08 04:31:06;;;;;;;12.20;4.32;;;;;;;17.07;39.18;101856.47;4974281;28;20030;-75
2021/04/08 04:33:32;;;;;;;10.43;2.50;;;;;;;16.93;39.26;101844.84;4974383;28;20034;-75
2021/04/08 04:35:57;;;;;;;9.93;3.03;;;;;;;16.64;39.98;101853.81;4974047;28;20481;-75
2021/04/08 04:38:23;;;;;;;9.77;2.95;;;;;;;16.68;39.89;101843.72;4973803;28;20412;-75
2021/04/08 04:40:49;;;;;;;12.40;2.50;;;;;;;16.84;39.75;101846.81;4974331;28;20038;-76
2021/04/08 04:43:15;;;;;;;5.93;2.60;;;;;;;16.81;39.87;101839.19;4974316;28;20113;-75
2021/04/08 04:45:40;;;;;;;7.93;2.72;;;;;;;16.82;39.74;101838.88;4974402;28;20113;-76
2021/04/08 04:48:09;;;;;;;12.00;3.90;;;;;;;16.96;39.16;101837.84;4974228;28;20494;-75
2021/04/08 04:50:34;;;;;;;10.70;3.22;;;;;;;16.89;39.47;101841.94;4974120;28;20389;-92
2021/04/08 04:53:00;;;;;;;11.68;2.78;;;;;;;16.81;39.72;101841.97;4973985;28;20035;-76
2021/04/08 04:55:26;;;;;;;10.55;3.17;;;;;;;16.87;39.56;101837.88;4973249;28;20371;-78
2021/04/08 04:57:51;;;;;;;8.73;2.88;;;;;;;16.53;40.53;101845.03;4972615;28;20030;-76
2021/04/08 05:00:17;;;;;;;5.18;2.42;;;;;;;16.81;39.97;101836.44;4971720;28;20134;-76
2021/04/08 05:02:43;;;;;;;12.98;3.30;;;;;;;16.90;39.59;101842.75;4974297;28;20619;-77
2021/04/08 05:05:09;;;;;;;6.03;2.58;;;;;;;16.72;39.98;101827.38;4972729;28;20057;-76
2021/04/08 05:07:34;;;;;;;13.70;3.05;;;;;;;16.78;40.09;101829.63;4973999;28;20046;-76
2021/04/08 05:10:00;;;;;;;5.57;2.60;;;;;;;16.49;40.81;101830.31;4974125;28;20128;-78
2021/04/08 05:12:26;;;;;;;7.95;3.63;;;;;;;16.64;40.55;101821.50;4973812;28;20508;-93
2021/04/08 05:14:52;;;;;;;10.45;2.75;;;;;;;16.55;40.90;101823.47;4973833;28;20082;-75
2021/04/08 05:17:18;;;;;;;7.88;2.83;;;;;;;16.83;40.27;101825.88;4973859;28;20042;-86
2021/04/08 05:19:43;;;;;;;7.55;3.00;;;;;;;16.90;40.15;101818.69;4973825;28;20027;-75
2021/04/08 05:22:09;;;;;;;6.78;2.53;;;;;;;16.89;40.23;101817.09;4973929;28;20240;-76
2021/04/08 05:24:35;;;;;;;10.27;3.20;;;;;;;16.59;41.01;101821.69;4972603;28;20039;-75
2021/04/08 05:27:00;;;;;;;12.25;3.28;;;;;;;17.12;39.74;101825.94;4973987;28;20126;-75
2021/04/08 05:29:26;;;;;;;7.15;2.22;;;;;;;16.99;39.66;101810.38;4956455;28;20509;-75
2021/04/08 05:31:52;;;;;;;7.47;2.67;;;;;;;16.91;40.05;101814.78;4971993;28;20023;-75
2021/04/08 05:34:18;;;;;;;8.13;2.88;;;;;;;16.79;40.44;101814.69;4973376;28;20512;-75
2021/04/08 05:36:44;;;;;;;10.93;3.45;;;;;;;17.08;40.09;101821.44;4973250;28;20042;-75
2021/04/08 05:39:09;;;;;;;8.43;2.88;;;;;;;17.07;39.99;101812.31;4973045;28;20031;-84
2021/04/08 05:41:35;;;;;;;8.10;2.40;;;;;;;17.10;39.81;101811.66;4973262;28;20077;-75
2021/04/08 05:44:03;;;;;;;10.80;3.15;;;;;;;16.97;40.36;101812.69;4973128;28;20062;-76
2021/04/08 05:46:28;;;;;;;6.55;2.10;;;;;;;16.84;40.47;101803.44;4973100;28;20039;-75
2021/04/08 05:48:54;;;;;;;5.43;1.80;;;;;;;16.91;40.54;101808.47;4973076;28;20027;-75
2021/04/08 05:51:19;;;;;;;8.10;1.90;;;;;;;16.63;40.90;101799.78;4973444;28;20790;-82
2021/04/08 05:53:45;;;;;;;8.13;2.25;;;;;;;16.74;41.03;101803.00;4973374;28;20038;-91
2021/04/08 05:56:11;;;;;;;5.53;2.40;;;;;;;16.91;40.37;101798.22;4973284;28;20181;-76
2021/04/08 05:58:37;;;;;;;13.18;2.88;;;;;;;16.26;42.08;101804.03;4972966;28;20026;-75
2021/04/08 06:01:03;;;;;;;4.90;2.25;;;;;;;16.72;41.02;101788.75;4972797;28;20414;-75
2021/04/08 06:03:29;;;;;;;11.38;2.22;;;;;;;16.65;41.05;101795.53;4972789;28;20041;-75
2021/04/08 06:05:55;;;;;;;8.25;2.20;;;;;;;16.81;40.77;101789.50;4972703;28;20046;-75
2021/04/08 06:08:20;;;;;;;5.85;2.15;;;;;;;16.56;41.61;101783.72;4973112;28;20428;-75
2021/04/08 06:10:46;;;;;;;9.80;2.90;;;;;;;16.66;41.41;101779.78;4973053;28;20105;-75
2021/04/08 06:13:12;;;;;;;17.98;3.45;;;;;;;16.84;40.94;101789.66;4972970;28;20027;-74
2021/04/08 06:15:39;;;;;;;4.60;1.85;;;;;;;16.48;41.73;101786.50;4971394;28;20130;-74
2021/04/08 06:18:04;;;;;;;10.60;2.97;;;;;;;16.81;41.21;101795.03;4973223;28;20035;-93
2021/04/08 06:20:30;;;;;;;5.68;1.85;;;;;;;16.76;41.57;101792.44;4972861;28;20030;-76
2021/04/08 06:22:58;;;;;;;10.50;3.17;;;;;;;17.03;40.86;101782.94;4973187;28;20026;-75
2021/04/08 06:25:25;;;;;;;7.32;2.30;;;;;;;16.61;41.61;101777.19;4972683;28;20058;-77
2021/04/08 06:27:51;;;;;;;8.13;2.85;;;;;;;16.51;41.51;101783.88;4973199;28;20031;-88
2021/04/08 06:30:18;;;;;;;12.88;2.67;;;;;;;16.62;41.58;101787.09;4972720;28;20034;-80
2021/04/08 06:32:44;;;;;;;8.30;1.90;;;;;;;16.90;41.02;101768.22;4973104;28;20031;-75
2021/04/08 06:35:10;;;;;;;9.35;2.15;;;;;;;17.09;40.57;101778.84;4972512;28;20031;-90
2021/04/08 06:37:36;;;;;;;6.38;1.80;;;;;;;17.11;40.83;101771.03;4973387;28;20510;-87
2021/04/08 06:40:04;;;;;;;8.98;2.50;;;;;;;17.36;40.22;101780.31;4973148;28;20035;-75
2021/04/08 06:42:33;;;;;;;11.55;3.05;;;;;;;17.46;39.93;101779.97;4972565;28;20094;-75
2021/04/08 06:45:01;;;;;;;9.50;2.58;;;;;;;17.29;40.12;101780.03;4972763;28;20038;-74
2021/04/08 06:47:32;;;;;;;12.68;2.58;;;;;;;17.32;40.20;101782.16;4972608;28;20129;-76
2021/04/08 06:50:04;;;;;;;16.88;3.80;;;;;;;17.40;40.28;101786.81;4971723;28;20026;-75
2021/04/08 06:52:30;;;;;;;9.52;2.70;;;;;;;17.43;39.91;101778.66;4972575;28;20035;-77
2021/04/08 06:54:57;;;;;;;10.32;1.75;;;;;;;16.94;40.89;101780.22;4972884;28;20111;-75
2021/04/08 06:57:23;;;;;;;19.00;3.40;;;;;;;17.61;39.86;101776.63;4971547;28;20434;-88
2021/04/08 06:59:49;;;;;;;8.52;1.75;;;;;;;17.70;39.55;101784.84;4973472;28;20059;-94
2021/04/08 07:02:18;;;;;;;10.60;3.08;;;;;;;17.18;40.58;101782.38;4973919;28;20034;-76
2021/04/08 07:04:44;;;;;;;4.38;1.33;;;;;;;17.64;39.89;101784.22;4974737;28;20027;-74
2021/04/08 07:07:10;;;;;;;18.92;3.38;;;;;;;17.71;39.47;101786.50;4973741;28;20038;-76
2021/04/08 07:09:36;;;;;;;4.85;1.80;;;;;;;17.85;39.22;101769.63;4968329;28;20030;-73
2021/04/08 07:12:02;;;;;;;8.73;2.42;;;;;;;17.60;39.58;101777.72;4969485;28;20027;-83
2021/04/08 07:14:28;;;;;;;6.88;1.88;;;;;;;17.90;39.12;101777.72;4974134;28;20023;-84
2021/04/08 07:16:54;;;;;;;15.77;3.40;;;;;;;17.91;39.10;101768.25;4957350;28;20038;-72
2021/04/08 07:19:20;;;;;;;6.38;1.85;;;;;;;17.89;39.03;101763.09;4969964;28;20027;-79
2021/04/08 07:21:46;;;;;;;5.80;2.65;;;;;;;18.00;38.78;101766.25;4964047;28;20067;-95
2021/04/08 07:24:15;;;;;;;12.55;3.05;;;;;;;17.97;38.82;101766.91;4957679;28;20027;-93
2021/04/08 07:27:01;;;;;;;10.23;3.15;;;;;;;17.88;38.94;101763.44;4957532;28;20114;-93
2021/04/08 07:29:39;;;;;;;15.10;3.00;;;;;;;17.77;39.23;101751.97;4962206;28;20061;-94
2021/04/08 07:32:19;;;;;;;11.70;1.92;;;;;;;17.88;38.96;101755.94;4963534;28;20035;-73
2021/04/08 07:34:47;;;;;;;4.40;1.70;;;;;;;18.03;38.72;101749.78;4966582;28;20026;-73
2021/04/08 07:37:13;;;;;;;16.10;5.38;;;;;;;18.06;38.83;101751.09;4972733;28;20060;-79
2021/04/08 07:39:45;;;;;;;30.83;5.30;;;;;;;17.91;39.04;101758.03;4964100;28;20397;-86
2021/04/08 07:42:16;;;;;;;14.00;4.50;;;;;;;17.90;38.96;101750.06;4972669;28;20592;-73
2021/04/08 07:44:43;;;;;;;14.57;2.95;;;;;;;18.23;38.69;101744.56;4967969;28;20062;-74
2021/04/08 07:47:24;;;;;;;29.63;6.63;;;;;;;18.31;38.55;101749.22;4978451;28;20050;-90
2021/04/08 07:50:17;;;;;;;7.97;2.53;;;;;;;17.84;39.07;101745.91;4959172;28;20085;-73
2021/04/08 07:52:48;;;;;;;5.10;1.58;;;;;;;18.15;38.33;101740.75;4959458;28;20018;-73
2021/04/08 07:55:35;;;;;;;7.38;2.17;;;;;;;18.01;38.73;101740.22;4960087;28;20473;-73
2021/04/08 07:58:12;;;;;;;14.77;3.28;;;;;;;18.22;38.26;101749.31;4959659;28;20092;-74
2021/04/08 08:00:44;;;;;;;5.03;1.70;;;;;;;18.15;38.63;101739.94;4959954;28;20381;-74
2021/04/08 08:03:23;;;;;;;10.77;2.50;;;;;;;18.61;37.63;101729.69;4960924;28;20030;-77
2021/04/08 08:05:50;;;;;;;34.45;6.70;;;;;;;18.50;37.91;101734.84;4976831;28;20037;-88
2021/04/08 08:08:19;;;;;;;9.55;1.85;;;;;;;18.80;36.99;101732.72;4975837;28;20030;-90
2021/04/08 08:11:05;;;;;;;7.43;1.92;;;;;;;18.53;37.63;101731.41;4976231;28;20027;-72
2021/04/08 08:13:38;;;;;;;10.48;2.00;;;;;;;18.09;38.22;101714.44;4976376;28;20029;-72
2021/04/08 08:16:06;;;;;;;5.07;1.75;;;;;;;18.77;37.24;101717.63;4976205;28;20023;-73
2021/04/08 08:18:35;;;;;;;6.20;1.60;;;;;;;18.64;37.07;101701.31;4976465;28;20027;-74
2021/04/08 08:21:18;;;;;;;13.75;3.10;;;;;;;18.79;37.06;101706.19;4976557;28;20030;-71
2021/04/08 08:23:46;;;;;;;31.67;6.93;;;;;;;18.84;36.69;101701.25;4976211;28;20031;-72
2021/04/08 08:26:43;;;;;;;12.20;2.72;;;;;;;18.91;36.50;101700.66;4974914;28;20031;-74
2021/04/08 08:29:09;;;;;;;7.22;1.83;;;;;;;19.10;36.55;101708.38;4976018;28;20031;-72
2021/04/08 08:31:54;;;;;;;5.63;1.60;;;;;;;18.49;37.19;101695.28;4973153;28;20074;-73
2021/04/08 08:34:23;;;;;;;8.18;2.00;;;;;;;19.18;36.24;101698.31;4973412;28;20037;-72
2021/04/08 08:37:00;;;;;;;23.08;5.28;;;;;;;18.79;36.98;101695.94;4966904;28;20074;-72
2021/04/08 08:39:28;;;;;;;6.57;1.92;;;;;;;18.81;36.68;101695.56;4968499;28;20026;-72
2021/04/08 08:41:56;;;;;;;7.10;3.13;;;;;;;19.11;36.29;101698.91;4968688;28;20023;-71
2021/04/08 08:44:22;;;;;;;4.72;1.73;;;;;;;18.43;37.47;101691.13;4963787;28;20061;-71
2021/04/08 08:46:56;;;;;;;7.97;1.75;;;;;;;18.94;36.65;101696.38;4966095;28;20050;-71
2021/04/08 08:49:27;;;;;;;28.25;6.03;;;;;;;19.41;35.76;101689.16;4964621;28;20510;-71
2021/04/08 08:51:58;;;;;;;13.13;1.90;;;;;;;19.49;35.57;101689.38;4969523;28;20027;-73
2021/04/08 08:54:24;;;;;;;8.55;1.55;;;;;;;19.71;35.44;101677.78;4961034;28;20031;-73
2021/04/08 08:56:50;;;;;;;3.45;1.25;;;;;;;19.68;35.35;101671.00;4961369;28;20038;-73
2021/04/08 08:59:16;;;;;;;7.03;1.60;;;;;;;19.44;35.49;101671.03;4965530;28;20023;-73
2021/04/08 09:01:42;;;;;;;22.75;3.83;;;;;;;19.16;35.89;101670.97;4964271;28;20396;-75
2021/04/08 09:04:08;;;;;;;4.40;1.33;;;;;;;19.44;35.14;101676.59;4964377;28;20036;-74
2021/04/08 09:06:35;;;;;;;9.60;2.28;;;;;;;19.76;34.87;101669.22;4964846;28;20038;-73
2021/04/08 09:09:08;;;;;;;4.78;1.90;;;;;;;19.46;35.26;101667.91;4966532;28;20023;-74
2021/04/08 09:11:35;;;;;;;14.73;2.80;;;;;;;19.94;34.59;101659.44;4967910;28;20071;-75
2021/04/08 09:14:01;;;;;;;16.23;3.92;;;;;;;19.42;35.47;101653.94;4972113;28;20034;-73
2021/04/08 09:16:31;;;;;;;12.50;3.00;;;;;;;19.45;35.08;101663.53;4960644;28;20042;-74
2021/04/08 09:19:09;;;;;;;7.13;1.88;;;;;;;19.50;35.08;101654.97;4958360;28;20110;-74
2021/04/08 09:21:49;;;;;;;9.32;1.65;;;;;;;19.42;35.37;101651.16;4959086;28;20031;-79
2021/04/08 09:24:22;;;;;;;11.93;2.15;;;;;;;19.49;34.99;101654.16;4957435;28;20031;-73
2021/04/08 09:26:53;;;;;;;4.45;1.50;;;;;;;19.17;35.16;101650.44;4959553;28;20077;-88
2021/04/08 09:29:37;;;;;;;4.88;1.40;;;;;;;19.52;34.43;101644.34;4959422;28;20470;-81
2021/04/08 09:32:23;;;;;;;6.70;2.08;;;;;;;19.44;34.86;101632.25;4962124;28;20030;-90
2021/04/08 09:35:04;;;;;;;8.63;2.00;;;;;;;19.70;34.41;101626.28;4964162;28;20039;-73
2021/04/08 09:37:45;;;;;;;3.58;1.15;;;;;;;19.40;34.51;101629.34;4956355;28;20092;-73
2021/04/08 09:40:23;;;;;;;8.55;2.17;;;;;;;19.91;33.99;101618.53;4957903;28;20022;-79
2021/04/08 09:42:55;;;;;;;6.85;2.25;;;;;;;19.44;34.14;101628.66;4958051;28;20026;-73
2021/04/08 09:45:21;;;;;;;3.05;1.20;;;;;;;19.73;34.01;101631.13;4957942;28;20058;-75
2021/04/08 09:47:47;;;;;;;3.70;1.45;;;;;;;19.95;33.78;101615.88;4957587;28;20087;-74
2021/04/08 09:50:51;;;;;;;5.80;1.48;;;;;;;20.24;33.38;101628.50;4958442;28;20050;-75
2021/04/08 09:53:21;;;;;;;11.65;2.33;;;;;;;20.09;33.42;101615.44;4940840;28;20837;-82
2021/04/08 09:56:01;;;;;;;5.78;1.90;;;;;;;19.90;33.32;101603.06;4974380;28;20026;-73
2021/04/08 09:58:29;;;;;;;5.72;1.85;;;;;;;20.29;33.20;101621.91;4974546;28;20033;-73
2021/04/08 10:00:57;;;;;;;3.85;1.50;;;;;;;20.03;33.16;101601.03;4974549;28;20038;-90
2021/04/08 10:03:35;;;;;;;4.60;1.27;;;;;;;19.52;33.93;101613.84;4974508;28;20037;-88
2021/04/08 10:06:13;;;;;;;5.68;1.73;;;;;;;19.90;33.37;101616.13;4972691;28;20026;-74
2021/04/08 10:08:39;;;;;;;12.02;2.75;;;;;;;20.12;32.86;101596.13;4972746;28;20031;-73
2021/04/08 10:11:04;;;;;;;6.93;1.35;;;;;;;20.20;32.92;101603.44;4973214;28;20485;-82
2021/04/08 10:13:32;;;;;;;7.47;2.17;;;;;;;20.37;32.73;101602.28;4973576;28;20433;-74
2021/04/08 10:15:59;;;;;;;5.00;1.85;;;;;;;20.44;32.83;101602.50;4973736;28;20026;-92
2021/04/08 10:18:33;;;;;;;6.75;1.75;;;;;;;19.72;33.29;101596.22;4973602;28;20026;-74
2021/04/08 10:21:03;;;;;;;7.20;2.17;;;;;;;20.56;32.18;101589.69;4974006;28;20022;-79
2021/04/08 10:23:32;;;;;;;4.75;1.60;;;;;;;20.26;32.72;101587.34;4965222;28;20026;-86
2021/04/08 10:26:05;;;;;;;34.35;6.55;;;;;;;20.09;32.72;101590.47;4957815;28;20035;-76
2021/04/08 10:28:40;;;;;;;11.20;2.33;;;;;;;20.42;32.44;101585.38;4959279;28;20030;-75
2021/04/08 10:31:44;;;;;;;5.50;2.45;;;;;;;20.07;32.62;101588.03;4957772;28;20027;-81
2021/04/08 10:34:19;;;;;;;10.80;1.92;;;;;;;20.06;32.73;101588.41;4917264;29;20067;-78
2021/04/08 10:36:57;;;;;;;7.90;1.70;;;;;;;20.12;32.74;101586.97;4916973;29;20028;-82
2021/04/08 10:39:28;;;;;;;8.30;1.88;;;;;;;19.99;33.12;101577.13;4932644;28;20046;-75
2021/04/08 10:41:57;;;;;;;4.28;1.45;;;;;;;19.68;33.34;101579.50;4956967;28;20054;-76
2021/04/08 10:44:37;;;;;;;5.68;1.83;;;;;;;19.97;33.07;101585.81;4956807;28;20038;-75
2021/04/08 10:47:11;;;;;;;4.00;1.17;;;;;;;19.85;33.06;101583.09;4957763;28;20075;-75
2021/04/08 10:49:47;;;;;;;5.50;2.03;;;;;;;19.50;33.92;101574.59;4957051;28;20505;-74
2021/04/08 10:52:21;;;;;;;14.88;3.22;;;;;;;20.16;32.50;101574.00;4957124;28;20110;-80
2021/04/08 10:54:54;;;;;;;4.53;1.50;;;;;;;19.93;32.83;101573.81;4957621;28;20022;-74
2021/04/08 10:57:21;;;;;;;3.08;1.50;;;;;;;19.23;33.38;101577.00;4957381;28;20035;-73
2021/04/08 10:59:48;;;;;;;2.90;1.40;;;;;;;19.67;32.63;101569.56;4957130;28;20023;-88
2021/04/08 11:02:22;;;;;;;2.50;1.20;;;;;;;19.68;32.87;101578.69;4957971;28;20437;-74
2021/04/08 11:04:49;;;;;;;5.72;1.42;;;;;;;20.04;32.33;101574.91;4959244;28;20509;-89
2021/04/08 11:07:14;;;;;;;3.47;1.35;;;;;;;20.29;32.05;101566.38;4960032;28;20477;-74
2021/04/08 11:09:40;;;;;;;6.22;2.38;;;;;;;20.09;32.61;101568.25;4959991;28;20034;-74
2021/04/08 11:12:35;;;;;;;4.30;1.65;;;;;;;20.07;32.45;101559.50;4959768;28;20050;-74
2021/04/08 11:15:02;;;;;;;5.28;2.10;;;;;;;20.53;31.76;101557.88;4951297;28;20043;-80
2021/04/08 11:17:29;;;;;;;8.02;2.47;;;;;;;20.32;32.14;101541.50;4958543;28;20031;-76
2021/04/08 11:19:56;;;;;;;7.05;1.63;;;;;;;20.45;31.92;101540.25;4960352;28;20026;-79
2021/04/08 11:22:29;;;;;;;2.45;1.40;;;;;;;20.07;32.13;101548.41;4960865;28;20058;-75
2021/04/08 11:24:56;;;;;;;4.43;1.45;;;;;;;19.86;32.26;101541.13;4969750;28;20035;-74
2021/04/08 11:27:40;;;;;;;5.30;2.10;;;;;;;20.09;31.92;101548.84;4959246;28;20578;-75
2021/04/08 11:30:07;;;;;;;5.38;1.38;;;;;;;20.19;31.87;101545.56;4960781;28;20089;-82
2021/04/08 11:33:03;;;;;;;2.83;1.05;;;;;;;20.32;31.95;101541.50;4958852;28;20042;-84